sensor_id;sensor_type;location;lat;lon;timestamp;P1;durP1;ratioP1;P2;durP2;ratioP2
16504;SDS011;8365;51.030;4.696;2023-10-13T00:00:45;8.75;;;7.63;;
16504;SDS011;8365;51.030;4.696;2023-10-13T00:03:17;13.75;;;8.85;;
16504;SDS011;8365;51.030;4.696;2023-10-13T00:05:48;9.15;;;8.15;;
16504;SDS011;8365;51.030;4.696;2023-10-13T00:08:22;11.30;;;8.18;;
16504;SDS011;8365;51.030;4.696;2023-10-13T00:10:54;10.57;;;8.73;;
16504;SDS011;8365;51.030;4.696;2023-10-13T00:13:30;10.90;;;8.38;;
16504;SDS011;8365;51.030;4.696;2023-10-13T00:16:12;11.85;;;8.70;;
16504;SDS011;8365;51.030;4.696;2023-10-13T00:18:48;12.18;;;8.35;;
16504;SDS011;8365;51.030;4.696;2023-10-13T00:21:20;11.32;;;9.18;;
16504;SDS011;8365;51.030;4.696;2023-10-13T00:24:03;14.57;;;9.05;;
16504;SDS011;8365;51.030;4.696;2023-10-13T00:26:36;12.70;;;8.82;;
16504;SDS011;8365;51.030;4.696;2023-10-13T00:29:06;10.18;;;9.05;;
16504;SDS011;8365;51.030;4.696;2023-10-13T00:31:38;12.48;;;9.55;;
16504;SDS011;8365;51.030;4.696;2023-10-13T00:34:12;14.93;;;9.70;;
16504;SDS011;8365;51.030;4.696;2023-10-13T00:36:49;12.52;;;9.73;;
16504;SDS011;8365;51.030;4.696;2023-10-13T00:39:39;11.27;;;10.07;;
16504;SDS011;8365;51.030;4.696;2023-10-13T00:42:15;14.00;;;10.02;;
16504;SDS011;8365;51.030;4.696;2023-10-13T00:44:54;11.43;;;10.15;;
16504;SDS011;8365;51.030;4.696;2023-10-13T00:47:24;12.45;;;9.93;;
16504;SDS011;8365;51.030;4.696;2023-10-13T00:50:06;17.05;;;11.27;;
16504;SDS011;8365;51.030;4.696;2023-10-13T00:52:45;15.73;;;11.60;;
16504;SDS011;8365;51.030;4.696;2023-10-13T00:55:20;11.93;;;10.70;;
16504;SDS011;8365;51.030;4.696;2023-10-13T00:57:56;13.02;;;11.40;;
16504;SDS011;8365;51.030;4.696;2023-10-13T01:00:32;13.52;;;11.52;;
16504;SDS011;8365;51.030;4.696;2023-10-13T01:03:16;14.75;;;12.13;;
16504;SDS011;8365;51.030;4.696;2023-10-13T01:05:55;15.82;;;12.00;;
16504;SDS011;8365;51.030;4.696;2023-10-13T01:08:32;15.88;;;12.75;;
16504;SDS011;8365;51.030;4.696;2023-10-13T01:11:05;14.13;;;12.63;;
16504;SDS011;8365;51.030;4.696;2023-10-13T01:13:37;19.90;;;14.05;;
16504;SDS011;8365;51.030;4.696;2023-10-13T01:16:08;21.10;;;15.30;;
16504;SDS011;8365;51.030;4.696;2023-10-13T01:18:38;19.85;;;15.48;;
16504;SDS011;8365;51.030;4.696;2023-10-13T01:21:18;21.27;;;15.43;;
16504;SDS011;8365;51.030;4.696;2023-10-13T01:23:57;19.55;;;16.30;;
16504;SDS011;8365;51.030;4.696;2023-10-13T01:26:27;19.55;;;17.50;;
16504;SDS011;8365;51.030;4.696;2023-10-13T01:28:58;21.10;;;17.50;;
16504;SDS011;8365;51.030;4.696;2023-10-13T01:31:28;26.55;;;19.15;;
16504;SDS011;8365;51.030;4.696;2023-10-13T01:34:07;25.27;;;20.40;;
16504;SDS011;8365;51.030;4.696;2023-10-13T01:36:38;26.95;;;21.30;;
16504;SDS011;8365;51.030;4.696;2023-10-13T01:39:10;29.65;;;21.45;;
16504;SDS011;8365;51.030;4.696;2023-10-13T01:41:41;29.58;;;23.45;;
16504;SDS011;8365;51.030;4.696;2023-10-13T01:44:11;29.13;;;23.02;;
16504;SDS011;8365;51.030;4.696;2023-10-13T01:46:42;28.63;;;24.00;;
16504;SDS011;8365;51.030;4.696;2023-10-13T01:49:12;32.95;;;24.05;;
16504;SDS011;8365;51.030;4.696;2023-10-13T01:51:43;28.13;;;24.05;;
16504;SDS011;8365;51.030;4.696;2023-10-13T01:54:17;32.45;;;24.90;;
16504;SDS011;8365;51.030;4.696;2023-10-13T01:56:48;35.47;;;24.38;;
16504;SDS011;8365;51.030;4.696;2023-10-13T01:59:18;34.15;;;24.85;;
16504;SDS011;8365;51.030;4.696;2023-10-13T02:01:49;33.92;;;24.13;;
16504;SDS011;8365;51.030;4.696;2023-10-13T02:04:27;31.65;;;25.35;;
16504;SDS011;8365;51.030;4.696;2023-10-13T02:06:58;28.83;;;24.20;;
16504;SDS011;8365;51.030;4.696;2023-10-13T02:09:28;31.27;;;24.25;;
16504;SDS011;8365;51.030;4.696;2023-10-13T02:11:59;29.65;;;23.13;;
16504;SDS011;8365;51.030;4.696;2023-10-13T02:14:30;29.67;;;22.73;;
16504;SDS011;8365;51.030;4.696;2023-10-13T02:17:03;27.40;;;23.20;;
16504;SDS011;8365;51.030;4.696;2023-10-13T02:19:42;29.55;;;22.92;;
16504;SDS011;8365;51.030;4.696;2023-10-13T02:22:16;30.48;;;23.67;;
16504;SDS011;8365;51.030;4.696;2023-10-13T02:25:01;29.38;;;22.17;;
16504;SDS011;8365;51.030;4.696;2023-10-13T02:27:35;29.88;;;21.42;;
16504;SDS011;8365;51.030;4.696;2023-10-13T02:30:10;28.15;;;21.50;;
16504;SDS011;8365;51.030;4.696;2023-10-13T02:32:44;27.35;;;21.38;;
16504;SDS011;8365;51.030;4.696;2023-10-13T02:35:15;25.77;;;22.00;;
16504;SDS011;8365;51.030;4.696;2023-10-13T02:37:47;28.35;;;22.13;;
16504;SDS011;8365;51.030;4.696;2023-10-13T02:40:24;27.15;;;21.83;;
16504;SDS011;8365;51.030;4.696;2023-10-13T02:42:54;27.85;;;21.75;;
16504;SDS011;8365;51.030;4.696;2023-10-13T02:45:25;28.13;;;21.73;;
16504;SDS011;8365;51.030;4.696;2023-10-13T02:47:56;26.02;;;20.65;;
16504;SDS011;8365;51.030;4.696;2023-10-13T02:50:54;29.25;;;21.95;;
16504;SDS011;8365;51.030;4.696;2023-10-13T02:53:31;26.00;;;19.67;;
16504;SDS011;8365;51.030;4.696;2023-10-13T02:56:02;28.77;;;19.95;;
16504;SDS011;8365;51.030;4.696;2023-10-13T02:58:36;23.42;;;19.17;;
16504;SDS011;8365;51.030;4.696;2023-10-13T03:01:13;26.70;;;20.58;;
16504;SDS011;8365;51.030;4.696;2023-10-13T03:03:49;27.63;;;20.60;;
16504;SDS011;8365;51.030;4.696;2023-10-13T03:06:24;27.17;;;19.85;;
16504;SDS011;8365;51.030;4.696;2023-10-13T03:09:08;25.60;;;19.63;;
16504;SDS011;8365;51.030;4.696;2023-10-13T03:11:49;26.38;;;19.42;;
16504;SDS011;8365;51.030;4.696;2023-10-13T03:14:21;28.00;;;19.38;;
16504;SDS011;8365;51.030;4.696;2023-10-13T03:17:01;22.63;;;19.17;;
16504;SDS011;8365;51.030;4.696;2023-10-13T03:19:35;23.23;;;18.20;;
16504;SDS011;8365;51.030;4.696;2023-10-13T03:22:09;28.88;;;18.55;;
16504;SDS011;8365;51.030;4.696;2023-10-13T03:24:45;23.25;;;19.17;;
16504;SDS011;8365;51.030;4.696;2023-10-13T03:27:19;21.88;;;18.48;;
16504;SDS011;8365;51.030;4.696;2023-10-13T03:29:54;26.50;;;18.80;;
16504;SDS011;8365;51.030;4.696;2023-10-13T03:32:24;26.95;;;17.95;;
16504;SDS011;8365;51.030;4.696;2023-10-13T03:34:56;26.27;;;18.40;;
16504;SDS011;8365;51.030;4.696;2023-10-13T03:37:42;21.25;;;18.10;;
16504;SDS011;8365;51.030;4.696;2023-10-13T03:40:15;28.75;;;18.60;;
16504;SDS011;8365;51.030;4.696;2023-10-13T03:43:06;25.42;;;17.67;;
16504;SDS011;8365;51.030;4.696;2023-10-13T03:45:40;22.38;;;17.13;;
16504;SDS011;8365;51.030;4.696;2023-10-13T03:48:16;22.40;;;17.42;;
16504;SDS011;8365;51.030;4.696;2023-10-13T03:50:57;23.13;;;17.55;;
16504;SDS011;8365;51.030;4.696;2023-10-13T03:53:45;25.83;;;16.38;;
16504;SDS011;8365;51.030;4.696;2023-10-13T03:56:25;22.20;;;16.52;;
16504;SDS011;8365;51.030;4.696;2023-10-13T03:58:57;20.55;;;15.90;;
16504;SDS011;8365;51.030;4.696;2023-10-13T04:01:35;20.88;;;16.42;;
16504;SDS011;8365;51.030;4.696;2023-10-13T04:04:18;21.98;;;16.38;;
16504;SDS011;8365;51.030;4.696;2023-10-13T04:07:04;21.40;;;15.70;;
16504;SDS011;8365;51.030;4.696;2023-10-13T04:09:35;21.08;;;15.45;;
16504;SDS011;8365;51.030;4.696;2023-10-13T04:12:07;21.75;;;15.20;;
16504;SDS011;8365;51.030;4.696;2023-10-13T04:14:44;24.55;;;15.38;;
16504;SDS011;8365;51.030;4.696;2023-10-13T04:17:34;20.67;;;14.82;;
16504;SDS011;8365;51.030;4.696;2023-10-13T04:20:10;22.45;;;15.55;;
16504;SDS011;8365;51.030;4.696;2023-10-13T04:22:42;22.42;;;15.43;;
16504;SDS011;8365;51.030;4.696;2023-10-13T04:25:16;23.88;;;14.93;;
16504;SDS011;8365;51.030;4.696;2023-10-13T04:28:21;19.08;;;14.07;;
16504;SDS011;8365;51.030;4.696;2023-10-13T04:30:58;20.35;;;13.45;;
16504;SDS011;8365;51.030;4.696;2023-10-13T04:33:29;17.10;;;13.00;;
16504;SDS011;8365;51.030;4.696;2023-10-13T04:36:07;18.52;;;12.45;;
16504;SDS011;8365;51.030;4.696;2023-10-13T04:38:51;19.30;;;12.05;;
16504;SDS011;8365;51.030;4.696;2023-10-13T04:41:27;15.73;;;11.90;;
16504;SDS011;8365;51.030;4.696;2023-10-13T04:44:13;14.55;;;11.68;;
16504;SDS011;8365;51.030;4.696;2023-10-13T04:47:00;16.20;;;11.85;;
16504;SDS011;8365;51.030;4.696;2023-10-13T04:49:31;20.30;;;12.05;;
16504;SDS011;8365;51.030;4.696;2023-10-13T04:52:19;19.20;;;11.23;;
16504;SDS011;8365;51.030;4.696;2023-10-13T04:55:08;19.20;;;11.32;;
16504;SDS011;8365;51.030;4.696;2023-10-13T04:57:48;18.35;;;11.10;;
16504;SDS011;8365;51.030;4.696;2023-10-13T05:00:41;16.90;;;10.93;;
16504;SDS011;8365;51.030;4.696;2023-10-13T05:03:15;16.05;;;10.80;;
16504;SDS011;8365;51.030;4.696;2023-10-13T05:06:05;16.02;;;10.90;;
16504;SDS011;8365;51.030;4.696;2023-10-13T05:08:55;16.88;;;10.20;;
16504;SDS011;8365;51.030;4.696;2023-10-13T05:11:43;16.85;;;10.63;;
16504;SDS011;8365;51.030;4.696;2023-10-13T05:14:32;15.20;;;10.15;;
16504;SDS011;8365;51.030;4.696;2023-10-13T05:17:21;14.25;;;9.50;;
16504;SDS011;8365;51.030;4.696;2023-10-13T05:20:10;15.98;;;9.98;;
16504;SDS011;8365;51.030;4.696;2023-10-13T05:22:59;14.32;;;9.73;;
16504;SDS011;8365;51.030;4.696;2023-10-13T05:25:48;18.25;;;10.63;;
16504;SDS011;8365;51.030;4.696;2023-10-13T05:28:54;19.95;;;10.65;;
16504;SDS011;8365;51.030;4.696;2023-10-13T05:31:43;14.40;;;9.68;;
16504;SDS011;8365;51.030;4.696;2023-10-13T05:34:32;16.15;;;11.00;;
16504;SDS011;8365;51.030;4.696;2023-10-13T05:37:21;20.63;;;11.10;;
16504;SDS011;8365;51.030;4.696;2023-10-13T05:40:10;18.55;;;10.35;;
16504;SDS011;8365;51.030;4.696;2023-10-13T05:42:59;14.65;;;10.45;;
16504;SDS011;8365;51.030;4.696;2023-10-13T05:45:48;17.73;;;10.65;;
16504;SDS011;8365;51.030;4.696;2023-10-13T05:48:45;17.33;;;10.70;;
16504;SDS011;8365;51.030;4.696;2023-10-13T05:51:28;22.30;;;10.65;;
16504;SDS011;8365;51.030;4.696;2023-10-13T05:54:03;17.50;;;10.77;;
16504;SDS011;8365;51.030;4.696;2023-10-13T05:56:44;18.13;;;11.05;;
16504;SDS011;8365;51.030;4.696;2023-10-13T05:59:35;20.73;;;10.80;;
16504;SDS011;8365;51.030;4.696;2023-10-13T06:02:25;17.35;;;11.30;;
16504;SDS011;8365;51.030;4.696;2023-10-13T06:05:14;19.23;;;11.73;;
16504;SDS011;8365;51.030;4.696;2023-10-13T06:08:05;19.13;;;11.20;;
16504;SDS011;8365;51.030;4.696;2023-10-13T06:11:00;20.70;;;11.18;;
16504;SDS011;8365;51.030;4.696;2023-10-13T06:13:53;19.13;;;10.50;;
16504;SDS011;8365;51.030;4.696;2023-10-13T06:16:41;20.48;;;10.55;;
16504;SDS011;8365;51.030;4.696;2023-10-13T06:19:30;18.45;;;10.40;;
16504;SDS011;8365;51.030;4.696;2023-10-13T06:22:19;19.23;;;10.63;;
16504;SDS011;8365;51.030;4.696;2023-10-13T06:25:09;25.25;;;11.48;;
16504;SDS011;8365;51.030;4.696;2023-10-13T06:28:00;18.70;;;11.40;;
16504;SDS011;8365;51.030;4.696;2023-10-13T06:30:56;18.10;;;10.80;;
16504;SDS011;8365;51.030;4.696;2023-10-13T06:33:27;17.75;;;11.43;;
16504;SDS011;8365;51.030;4.696;2023-10-13T06:36:03;17.27;;;10.27;;
16504;SDS011;8365;51.030;4.696;2023-10-13T06:38:39;20.35;;;10.55;;
16504;SDS011;8365;51.030;4.696;2023-10-13T06:41:09;19.45;;;10.35;;
16504;SDS011;8365;51.030;4.696;2023-10-13T06:43:49;13.40;;;9.50;;
16504;SDS011;8365;51.030;4.696;2023-10-13T06:46:29;16.35;;;9.73;;
16504;SDS011;8365;51.030;4.696;2023-10-13T06:49:03;22.73;;;10.13;;
16504;SDS011;8365;51.030;4.696;2023-10-13T06:51:34;18.88;;;9.68;;
16504;SDS011;8365;51.030;4.696;2023-10-13T06:54:07;18.35;;;9.30;;
16504;SDS011;8365;51.030;4.696;2023-10-13T06:56:52;14.85;;;9.93;;
16504;SDS011;8365;51.030;4.696;2023-10-13T06:59:23;16.98;;;9.27;;
16504;SDS011;8365;51.030;4.696;2023-10-13T07:01:56;20.90;;;10.27;;
16504;SDS011;8365;51.030;4.696;2023-10-13T07:04:33;12.93;;;8.63;;
16504;SDS011;8365;51.030;4.696;2023-10-13T07:07:04;17.58;;;8.50;;
16504;SDS011;8365;51.030;4.696;2023-10-13T07:09:39;13.43;;;8.85;;
16504;SDS011;8365;51.030;4.696;2023-10-13T07:12:10;15.75;;;8.38;;
16504;SDS011;8365;51.030;4.696;2023-10-13T07:14:47;15.32;;;8.20;;
16504;SDS011;8365;51.030;4.696;2023-10-13T07:17:21;18.23;;;8.23;;
16504;SDS011;8365;51.030;4.696;2023-10-13T07:19:55;17.65;;;8.70;;
16504;SDS011;8365;51.030;4.696;2023-10-13T07:22:36;17.27;;;8.63;;
16504;SDS011;8365;51.030;4.696;2023-10-13T07:25:12;15.93;;;8.00;;
16504;SDS011;8365;51.030;4.696;2023-10-13T07:27:53;14.27;;;7.82;;
16504;SDS011;8365;51.030;4.696;2023-10-13T07:30:26;14.23;;;7.47;;
16504;SDS011;8365;51.030;4.696;2023-10-13T07:33:00;15.50;;;7.35;;
16504;SDS011;8365;51.030;4.696;2023-10-13T07:35:30;18.38;;;8.00;;
16504;SDS011;8365;51.030;4.696;2023-10-13T07:38:05;15.65;;;7.95;;
16504;SDS011;8365;51.030;4.696;2023-10-13T07:40:38;13.35;;;7.30;;
16504;SDS011;8365;51.030;4.696;2023-10-13T07:43:11;14.82;;;7.63;;
16504;SDS011;8365;51.030;4.696;2023-10-13T07:45:43;14.27;;;8.02;;
16504;SDS011;8365;51.030;4.696;2023-10-13T07:48:13;10.82;;;7.30;;
16504;SDS011;8365;51.030;4.696;2023-10-13T07:51:07;17.02;;;7.15;;
16504;SDS011;8365;51.030;4.696;2023-10-13T07:53:42;18.67;;;8.15;;
16504;SDS011;8365;51.030;4.696;2023-10-13T07:56:19;16.35;;;8.00;;
16504;SDS011;8365;51.030;4.696;2023-10-13T07:58:51;11.80;;;7.38;;
16504;SDS011;8365;51.030;4.696;2023-10-13T08:01:31;17.85;;;7.90;;
16504;SDS011;8365;51.030;4.696;2023-10-13T08:04:02;16.70;;;8.05;;
16504;SDS011;8365;51.030;4.696;2023-10-13T08:06:41;13.80;;;7.80;;
16504;SDS011;8365;51.030;4.696;2023-10-13T08:09:13;9.27;;;7.43;;
16504;SDS011;8365;51.030;4.696;2023-10-13T08:12:00;13.85;;;7.53;;
16504;SDS011;8365;51.030;4.696;2023-10-13T08:14:31;15.25;;;7.22;;
16504;SDS011;8365;51.030;4.696;2023-10-13T08:17:04;26.27;;;7.38;;
16504;SDS011;8365;51.030;4.696;2023-10-13T08:19:40;15.15;;;7.53;;
16504;SDS011;8365;51.030;4.696;2023-10-13T08:22:14;13.82;;;7.50;;
16504;SDS011;8365;51.030;4.696;2023-10-13T08:24:48;16.58;;;7.85;;
16504;SDS011;8365;51.030;4.696;2023-10-13T08:27:23;14.60;;;7.03;;
16504;SDS011;8365;51.030;4.696;2023-10-13T08:30:19;15.70;;;7.82;;
16504;SDS011;8365;51.030;4.696;2023-10-13T08:32:56;15.65;;;7.60;;
16504;SDS011;8365;51.030;4.696;2023-10-13T08:35:29;14.35;;;7.85;;
16504;SDS011;8365;51.030;4.696;2023-10-13T08:38:05;13.25;;;7.85;;
16504;SDS011;8365;51.030;4.696;2023-10-13T08:40:46;11.00;;;7.05;;
16504;SDS011;8365;51.030;4.696;2023-10-13T08:43:39;10.52;;;7.25;;
16504;SDS011;8365;51.030;4.696;2023-10-13T08:46:15;14.73;;;7.80;;
16504;SDS011;8365;51.030;4.696;2023-10-13T08:48:55;11.90;;;7.45;;
16504;SDS011;8365;51.030;4.696;2023-10-13T08:51:45;13.55;;;6.78;;
16504;SDS011;8365;51.030;4.696;2023-10-13T08:54:20;13.50;;;7.53;;
16504;SDS011;8365;51.030;4.696;2023-10-13T08:57:11;14.30;;;7.15;;
16504;SDS011;8365;51.030;4.696;2023-10-13T09:00:03;13.48;;;7.90;;
16504;SDS011;8365;51.030;4.696;2023-10-13T09:02:52;15.27;;;7.45;;
16504;SDS011;8365;51.030;4.696;2023-10-13T09:05:43;15.15;;;7.72;;
16504;SDS011;8365;51.030;4.696;2023-10-13T09:08:30;14.05;;;7.43;;
16504;SDS011;8365;51.030;4.696;2023-10-13T09:11:27;13.32;;;7.40;;
16504;SDS011;8365;51.030;4.696;2023-10-13T09:14:12;16.70;;;7.43;;
16504;SDS011;8365;51.030;4.696;2023-10-13T09:17:03;13.65;;;7.30;;
16504;SDS011;8365;51.030;4.696;2023-10-13T09:19:48;18.35;;;8.05;;
16504;SDS011;8365;51.030;4.696;2023-10-13T09:22:25;12.10;;;7.72;;
16504;SDS011;8365;51.030;4.696;2023-10-13T09:25:05;11.93;;;7.38;;
16504;SDS011;8365;51.030;4.696;2023-10-13T09:27:36;14.52;;;8.15;;
16504;SDS011;8365;51.030;4.696;2023-10-13T09:30:07;16.58;;;7.93;;
16504;SDS011;8365;51.030;4.696;2023-10-13T09:33:00;11.10;;;7.22;;
16504;SDS011;8365;51.030;4.696;2023-10-13T09:35:34;13.63;;;7.72;;
16504;SDS011;8365;51.030;4.696;2023-10-13T09:38:07;15.32;;;8.02;;
16504;SDS011;8365;51.030;4.696;2023-10-13T09:40:37;16.98;;;8.20;;
16504;SDS011;8365;51.030;4.696;2023-10-13T09:43:08;14.88;;;7.53;;
16504;SDS011;8365;51.030;4.696;2023-10-13T09:45:44;15.82;;;8.05;;
16504;SDS011;8365;51.030;4.696;2023-10-13T09:48:38;12.75;;;7.47;;
16504;SDS011;8365;51.030;4.696;2023-10-13T09:51:16;16.65;;;7.65;;
16504;SDS011;8365;51.030;4.696;2023-10-13T09:53:52;14.07;;;8.48;;
16504;SDS011;8365;51.030;4.696;2023-10-13T09:56:32;20.88;;;8.98;;
16504;SDS011;8365;51.030;4.696;2023-10-13T09:59:26;12.80;;;8.02;;
16504;SDS011;8365;51.030;4.696;2023-10-13T10:02:05;17.25;;;7.82;;
16504;SDS011;8365;51.030;4.696;2023-10-13T10:04:51;13.10;;;7.82;;
16504;SDS011;8365;51.030;4.696;2023-10-13T10:07:23;15.68;;;7.50;;
16504;SDS011;8365;51.030;4.696;2023-10-13T10:10:02;14.20;;;7.25;;
16504;SDS011;8365;51.030;4.696;2023-10-13T10:15:32;14.95;;;7.82;;
16504;SDS011;8365;51.030;4.696;2023-10-13T10:18:05;13.35;;;7.63;;
16504;SDS011;8365;51.030;4.696;2023-10-13T10:20:51;15.88;;;8.18;;
16504;SDS011;8365;51.030;4.696;2023-10-13T10:23:40;18.40;;;7.63;;
16504;SDS011;8365;51.030;4.696;2023-10-13T10:26:13;12.20;;;8.35;;
16504;SDS011;8365;51.030;4.696;2023-10-13T10:28:45;17.15;;;7.55;;
16504;SDS011;8365;51.030;4.696;2023-10-13T10:31:16;19.75;;;8.40;;
16504;SDS011;8365;51.030;4.696;2023-10-13T10:33:49;16.98;;;8.27;;
16504;SDS011;8365;51.030;4.696;2023-10-13T10:36:31;22.58;;;8.35;;
16504;SDS011;8365;51.030;4.696;2023-10-13T10:39:02;15.65;;;8.00;;
16504;SDS011;8365;51.030;4.696;2023-10-13T10:41:35;17.80;;;8.35;;
16504;SDS011;8365;51.030;4.696;2023-10-13T10:44:15;13.48;;;7.82;;
16504;SDS011;8365;51.030;4.696;2023-10-13T10:46:46;13.40;;;7.47;;
16504;SDS011;8365;51.030;4.696;2023-10-13T10:49:27;13.55;;;7.85;;
16504;SDS011;8365;51.030;4.696;2023-10-13T10:52:00;19.83;;;7.95;;
16504;SDS011;8365;51.030;4.696;2023-10-13T10:54:31;16.88;;;7.78;;
16504;SDS011;8365;51.030;4.696;2023-10-13T10:57:02;15.35;;;7.57;;
16504;SDS011;8365;51.030;4.696;2023-10-13T10:59:43;17.40;;;7.63;;
16504;SDS011;8365;51.030;4.696;2023-10-13T11:02:16;18.45;;;7.53;;
16504;SDS011;8365;51.030;4.696;2023-10-13T11:04:57;16.13;;;7.70;;
16504;SDS011;8365;51.030;4.696;2023-10-13T11:07:28;26.90;;;8.02;;
16504;SDS011;8365;51.030;4.696;2023-10-13T11:10:09;17.40;;;8.35;;
16504;SDS011;8365;51.030;4.696;2023-10-13T11:12:57;18.35;;;7.95;;
16504;SDS011;8365;51.030;4.696;2023-10-13T11:15:51;17.05;;;8.27;;
16504;SDS011;8365;51.030;4.696;2023-10-13T11:18:29;20.80;;;7.95;;
16504;SDS011;8365;51.030;4.696;2023-10-13T11:21:08;19.80;;;8.02;;
16504;SDS011;8365;51.030;4.696;2023-10-13T11:23:54;20.50;;;8.50;;
16504;SDS011;8365;51.030;4.696;2023-10-13T11:26:35;15.05;;;7.97;;
16504;SDS011;8365;51.030;4.696;2023-10-13T11:29:35;19.20;;;8.57;;
16504;SDS011;8365;51.030;4.696;2023-10-13T11:32:07;21.17;;;8.15;;
16504;SDS011;8365;51.030;4.696;2023-10-13T11:34:38;15.77;;;7.90;;
16504;SDS011;8365;51.030;4.696;2023-10-13T11:37:12;20.10;;;8.05;;
16504;SDS011;8365;51.030;4.696;2023-10-13T11:40:01;19.38;;;8.43;;
16504;SDS011;8365;51.030;4.696;2023-10-13T11:42:39;16.27;;;8.02;;
16504;SDS011;8365;51.030;4.696;2023-10-13T11:45:13;19.90;;;8.20;;
16504;SDS011;8365;51.030;4.696;2023-10-13T11:48:01;22.88;;;8.45;;
16504;SDS011;8365;51.030;4.696;2023-10-13T11:50:32;14.98;;;8.00;;
16504;SDS011;8365;51.030;4.696;2023-10-13T11:53:03;17.90;;;8.27;;
16504;SDS011;8365;51.030;4.696;2023-10-13T11:55:37;18.85;;;8.80;;
16504;SDS011;8365;51.030;4.696;2023-10-13T11:58:08;25.63;;;7.43;;
16504;SDS011;8365;51.030;4.696;2023-10-13T12:00:38;18.60;;;8.35;;
16504;SDS011;8365;51.030;4.696;2023-10-13T12:03:23;15.63;;;7.88;;
16504;SDS011;8365;51.030;4.696;2023-10-13T12:06:12;19.95;;;7.82;;
16504;SDS011;8365;51.030;4.696;2023-10-13T12:09:09;16.05;;;7.97;;
16504;SDS011;8365;51.030;4.696;2023-10-13T12:11:46;14.55;;;7.63;;
16504;SDS011;8365;51.030;4.696;2023-10-13T12:14:20;16.25;;;7.90;;
16504;SDS011;8365;51.030;4.696;2023-10-13T12:17:02;19.73;;;7.75;;
16504;SDS011;8365;51.030;4.696;2023-10-13T12:19:40;17.92;;;8.05;;
16504;SDS011;8365;51.030;4.696;2023-10-13T12:22:11;23.60;;;8.00;;
16504;SDS011;8365;51.030;4.696;2023-10-13T12:24:46;18.52;;;8.00;;
16504;SDS011;8365;51.030;4.696;2023-10-13T12:27:23;13.25;;;6.60;;
16504;SDS011;8365;51.030;4.696;2023-10-13T12:29:56;13.70;;;7.00;;
16504;SDS011;8365;51.030;4.696;2023-10-13T12:32:28;20.00;;;7.60;;
16504;SDS011;8365;51.030;4.696;2023-10-13T12:35:02;15.95;;;7.68;;
16504;SDS011;8365;51.030;4.696;2023-10-13T12:37:33;15.35;;;7.32;;
16504;SDS011;8365;51.030;4.696;2023-10-13T12:42:58;15.73;;;7.90;;
16504;SDS011;8365;51.030;4.696;2023-10-13T12:45:48;19.45;;;8.52;;
16504;SDS011;8365;51.030;4.696;2023-10-13T12:48:38;16.27;;;7.43;;
16504;SDS011;8365;51.030;4.696;2023-10-13T12:51:27;14.48;;;7.43;;
16504;SDS011;8365;51.030;4.696;2023-10-13T12:54:03;14.15;;;6.93;;
16504;SDS011;8365;51.030;4.696;2023-10-13T12:56:50;18.50;;;7.60;;
16504;SDS011;8365;51.030;4.696;2023-10-13T12:59:26;17.35;;;6.93;;
16504;SDS011;8365;51.030;4.696;2023-10-13T13:01:57;25.48;;;7.45;;
16504;SDS011;8365;51.030;4.696;2023-10-13T13:04:27;16.05;;;7.22;;
16504;SDS011;8365;51.030;4.696;2023-10-13T13:07:02;14.07;;;7.50;;
16504;SDS011;8365;51.030;4.696;2023-10-13T13:09:34;18.65;;;6.70;;
16504;SDS011;8365;51.030;4.696;2023-10-13T13:12:07;13.15;;;6.65;;
16504;SDS011;8365;51.030;4.696;2023-10-13T13:14:42;17.30;;;7.65;;
16504;SDS011;8365;51.030;4.696;2023-10-13T13:17:16;15.93;;;6.50;;
16504;SDS011;8365;51.030;4.696;2023-10-13T13:19:46;12.40;;;7.38;;
16504;SDS011;8365;51.030;4.696;2023-10-13T13:22:17;16.25;;;7.35;;
16504;SDS011;8365;51.030;4.696;2023-10-13T13:24:48;17.02;;;6.75;;
16504;SDS011;8365;51.030;4.696;2023-10-13T13:27:18;13.80;;;6.43;;
16504;SDS011;8365;51.030;4.696;2023-10-13T13:29:49;17.15;;;7.72;;
16504;SDS011;8365;51.030;4.696;2023-10-13T13:32:20;14.32;;;6.85;;
16504;SDS011;8365;51.030;4.696;2023-10-13T13:34:58;8.70;;;6.97;;
16504;SDS011;8365;51.030;4.696;2023-10-13T13:37:34;13.10;;;7.05;;
16504;SDS011;8365;51.030;4.696;2023-10-13T13:40:07;12.77;;;7.15;;
16504;SDS011;8365;51.030;4.696;2023-10-13T13:42:44;10.88;;;6.30;;
16504;SDS011;8365;51.030;4.696;2023-10-13T13:45:16;9.57;;;6.70;;
16504;SDS011;8365;51.030;4.696;2023-10-13T13:48:07;12.20;;;6.47;;
16504;SDS011;8365;51.030;4.696;2023-10-13T13:50:45;12.32;;;7.07;;
16504;SDS011;8365;51.030;4.696;2023-10-13T13:53:22;14.10;;;7.30;;
16504;SDS011;8365;51.030;4.696;2023-10-13T13:56:01;13.98;;;6.47;;
16504;SDS011;8365;51.030;4.696;2023-10-13T13:58:32;10.52;;;6.38;;
16504;SDS011;8365;51.030;4.696;2023-10-13T14:01:03;15.18;;;7.25;;
16504;SDS011;8365;51.030;4.696;2023-10-13T14:03:45;12.18;;;6.53;;
16504;SDS011;8365;51.030;4.696;2023-10-13T14:06:17;11.60;;;6.80;;
16504;SDS011;8365;51.030;4.696;2023-10-13T14:08:57;12.80;;;6.95;;
16504;SDS011;8365;51.030;4.696;2023-10-13T14:12:02;10.18;;;6.35;;
16504;SDS011;8365;51.030;4.696;2023-10-13T14:14:51;14.32;;;6.00;;
16504;SDS011;8365;51.030;4.696;2023-10-13T14:17:28;10.38;;;6.63;;
16504;SDS011;8365;51.030;4.696;2023-10-13T14:20:05;12.38;;;6.75;;
16504;SDS011;8365;51.030;4.696;2023-10-13T14:22:45;11.20;;;6.57;;
16504;SDS011;8365;51.030;4.696;2023-10-13T14:25:19;12.95;;;6.25;;
16504;SDS011;8365;51.030;4.696;2023-10-13T14:27:54;12.82;;;6.75;;
16504;SDS011;8365;51.030;4.696;2023-10-13T14:30:28;9.27;;;6.38;;
16504;SDS011;8365;51.030;4.696;2023-10-13T14:33:01;14.45;;;6.55;;
16504;SDS011;8365;51.030;4.696;2023-10-13T14:35:35;12.02;;;6.45;;
16504;SDS011;8365;51.030;4.696;2023-10-13T14:38:05;11.65;;;6.72;;
16504;SDS011;8365;51.030;4.696;2023-10-13T14:40:37;13.00;;;6.40;;
16504;SDS011;8365;51.030;4.696;2023-10-13T14:43:07;13.48;;;6.97;;
16504;SDS011;8365;51.030;4.696;2023-10-13T14:45:38;13.05;;;6.45;;
16504;SDS011;8365;51.030;4.696;2023-10-13T14:48:08;12.93;;;7.10;;
16504;SDS011;8365;51.030;4.696;2023-10-13T14:50:42;13.73;;;6.90;;
16504;SDS011;8365;51.030;4.696;2023-10-13T14:53:13;11.77;;;7.30;;
16504;SDS011;8365;51.030;4.696;2023-10-13T14:55:47;10.50;;;6.30;;
16504;SDS011;8365;51.030;4.696;2023-10-13T14:58:18;14.18;;;7.10;;
16504;SDS011;8365;51.030;4.696;2023-10-13T15:00:56;11.20;;;6.70;;
16504;SDS011;8365;51.030;4.696;2023-10-13T15:03:28;11.80;;;6.95;;
16504;SDS011;8365;51.030;4.696;2023-10-13T15:06:00;12.15;;;6.90;;
16504;SDS011;8365;51.030;4.696;2023-10-13T15:08:33;13.25;;;6.85;;
16504;SDS011;8365;51.030;4.696;2023-10-13T15:11:07;13.43;;;7.15;;
16504;SDS011;8365;51.030;4.696;2023-10-13T15:13:42;11.75;;;6.97;;
16504;SDS011;8365;51.030;4.696;2023-10-13T15:16:13;13.73;;;6.72;;
16504;SDS011;8365;51.030;4.696;2023-10-13T15:18:48;12.32;;;7.18;;
16504;SDS011;8365;51.030;4.696;2023-10-13T15:21:27;13.38;;;7.78;;
16504;SDS011;8365;51.030;4.696;2023-10-13T15:24:07;10.50;;;7.40;;
16504;SDS011;8365;51.030;4.696;2023-10-13T15:26:44;14.82;;;6.70;;
16504;SDS011;8365;51.030;4.696;2023-10-13T15:29:18;11.50;;;6.88;;
16504;SDS011;8365;51.030;4.696;2023-10-13T15:31:55;10.40;;;6.93;;
16504;SDS011;8365;51.030;4.696;2023-10-13T15:34:28;10.85;;;6.85;;
16504;SDS011;8365;51.030;4.696;2023-10-13T15:37:00;12.73;;;7.55;;
16504;SDS011;8365;51.030;4.696;2023-10-13T15:39:30;15.02;;;7.03;;
16504;SDS011;8365;51.030;4.696;2023-10-13T15:42:01;13.55;;;7.20;;
16504;SDS011;8365;51.030;4.696;2023-10-13T15:44:33;14.32;;;7.15;;
16504;SDS011;8365;51.030;4.696;2023-10-13T15:47:05;10.80;;;7.00;;
16504;SDS011;8365;51.030;4.696;2023-10-13T15:49:35;11.13;;;6.85;;
16504;SDS011;8365;51.030;4.696;2023-10-13T15:52:06;12.00;;;7.05;;